sensor_id;sensor_type;location;lat;lon;timestamp;temperature;humidity
21085;DHT22;34247;50.064;19.970;2022-07-22T00:00:32;36.90;26.50
21085;DHT22;34247;50.064;19.970;2022-07-22T00:01:36;36.90;26.60
21085;DHT22;34247;50.064;19.970;2022-07-22T00:02:40;36.90;26.70
21085;DHT22;34247;50.064;19.970;2022-07-22T00:03:45;36.90;26.80
21085;DHT22;34247;50.064;19.970;2022-07-22T00:04:50;36.80;26.70
21085;DHT22;34247;50.064;19.970;2022-07-22T00:05:55;36.80;26.80
21085;DHT22;34247;50.064;19.970;2022-07-22T00:06:59;36.80;26.90
21085;DHT22;34247;50.064;19.970;2022-07-22T00:08:03;36.70;26.90
21085;DHT22;34247;50.064;19.970;2022-07-22T00:09:07;36.70;26.90
21085;DHT22;34247;50.064;19.970;2022-07-22T00:10:12;36.70;27.00
21085;DHT22;34247;50.064;19.970;2022-07-22T00:11:16;36.70;27.00
21085;DHT22;34247;50.064;19.970;2022-07-22T00:12:20;36.70;27.10
21085;DHT22;34247;50.064;19.970;2022-07-22T00:13:24;36.60;27.60
21085;DHT22;34247;50.064;19.970;2022-07-22T00:14:28;36.70;27.20
21085;DHT22;34247;50.064;19.970;2022-07-22T00:15:33;36.60;27.30
21085;DHT22;34247;50.064;19.970;2022-07-22T00:16:37;36.60;27.30
21085;DHT22;34247;50.064;19.970;2022-07-22T00:17:41;36.60;27.30
21085;DHT22;34247;50.064;19.970;2022-07-22T00:18:46;36.60;27.40
21085;DHT22;34247;50.064;19.970;2022-07-22T00:19:50;36.50;27.50
21085;DHT22;34247;50.064;19.970;2022-07-22T00:20:54;36.50;27.50
21085;DHT22;34247;50.064;19.970;2022-07-22T00:22:03;36.50;27.60
21085;DHT22;34247;50.064;19.970;2022-07-22T00:23:09;36.40;27.50
21085;DHT22;34247;50.064;19.970;2022-07-22T00:24:13;36.40;27.60
21085;DHT22;34247;50.064;19.970;2022-07-22T00:25:17;36.40;27.60
21085;DHT22;34247;50.064;19.970;2022-07-22T00:26:25;36.30;27.60
21085;DHT22;34247;50.064;19.970;2022-07-22T00:27:29;36.30;27.70
21085;DHT22;34247;50.064;19.970;2022-07-22T00:28:33;36.30;27.70
21085;DHT22;34247;50.064;19.970;2022-07-22T00:29:37;36.30;27.70
21085;DHT22;34247;50.064;19.970;2022-07-22T00:30:41;36.30;27.70
21085;DHT22;34247;50.064;19.970;2022-07-22T00:31:45;36.30;28.20
21085;DHT22;34247;50.064;19.970;2022-07-22T00:32:50;36.30;27.70
21085;DHT22;34247;50.064;19.970;2022-07-22T00:33:57;36.30;27.80
21085;DHT22;34247;50.064;19.970;2022-07-22T00:35:07;36.30;27.80
21085;DHT22;34247;50.064;19.970;2022-07-22T00:36:12;36.20;27.70
21085;DHT22;34247;50.064;19.970;2022-07-22T00:37:16;36.20;27.80
21085;DHT22;34247;50.064;19.970;2022-07-22T00:38:20;36.20;27.80
21085;DHT22;34247;50.064;19.970;2022-07-22T00:39:24;36.20;27.80
21085;DHT22;34247;50.064;19.970;2022-07-22T00:40:31;36.20;27.80
21085;DHT22;34247;50.064;19.970;2022-07-22T00:41:36;36.20;27.80
21085;DHT22;34247;50.064;19.970;2022-07-22T00:42:41;36.10;27.80
21085;DHT22;34247;50.064;19.970;2022-07-22T00:43:51;36.10;27.80
21085;DHT22;34247;50.064;19.970;2022-07-22T00:45:08;36.10;27.80
21085;DHT22;34247;50.064;19.970;2022-07-22T00:46:13;36.10;27.80
21085;DHT22;34247;50.064;19.970;2022-07-22T00:47:17;36.10;27.80
21085;DHT22;34247;50.064;19.970;2022-07-22T00:48:22;36.10;27.90
21085;DHT22;34247;50.064;19.970;2022-07-22T00:49:27;36.10;27.90
21085;DHT22;34247;50.064;19.970;2022-07-22T00:50:32;36.10;28.00
21085;DHT22;34247;50.064;19.970;2022-07-22T00:51:37;36.10;28.00
21085;DHT22;34247;50.064;19.970;2022-07-22T00:52:43;36.10;28.00
21085;DHT22;34247;50.064;19.970;2022-07-22T00:53:48;36.10;28.10
21085;DHT22;34247;50.064;19.970;2022-07-22T00:54:55;36.00;28.10
21085;DHT22;34247;50.064;19.970;2022-07-22T00:56:01;36.00;28.10
21085;DHT22;34247;50.064;19.970;2022-07-22T00:57:08;36.00;28.10
21085;DHT22;34247;50.064;19.970;2022-07-22T00:58:12;36.00;28.20
21085;DHT22;34247;50.064;19.970;2022-07-22T00:59:20;36.00;28.20
21085;DHT22;34247;50.064;19.970;2022-07-22T01:00:25;36.00;28.30
21085;DHT22;34247;50.064;19.970;2022-07-22T01:01:30;36.00;28.30
21085;DHT22;34247;50.064;19.970;2022-07-22T01:02:35;36.00;28.30
21085;DHT22;34247;50.064;19.970;2022-07-22T01:03:39;36.00;28.30
21085;DHT22;34247;50.064;19.970;2022-07-22T01:04:51;35.90;28.20
21085;DHT22;34247;50.064;19.970;2022-07-22T01:05:56;35.90;28.30
21085;DHT22;34247;50.064;19.970;2022-07-22T01:07:00;35.90;28.30
21085;DHT22;34247;50.064;19.970;2022-07-22T01:08:06;35.90;28.30
21085;DHT22;34247;50.064;19.970;2022-07-22T01:09:11;35.90;28.50
21085;DHT22;34247;50.064;19.970;2022-07-22T01:10:16;35.90;28.60
21085;DHT22;34247;50.064;19.970;2022-07-22T01:11:20;35.90;28.50
21085;DHT22;34247;50.064;19.970;2022-07-22T01:12:25;35.80;28.30
21085;DHT22;34247;50.064;19.970;2022-07-22T01:13:29;35.80;28.40
21085;DHT22;34247;50.064;19.970;2022-07-22T01:14:33;35.80;28.40
21085;DHT22;34247;50.064;19.970;2022-07-22T01:15:37;35.90;28.40
21085;DHT22;34247;50.064;19.970;2022-07-22T01:16:41;35.80;28.30
21085;DHT22;34247;50.064;19.970;2022-07-22T01:17:51;35.80;28.30
21085;DHT22;34247;50.064;19.970;2022-07-22T01:18:55;35.80;28.30
21085;DHT22;34247;50.064;19.970;2022-07-22T01:20:05;35.80;28.40
21085;DHT22;34247;50.064;19.970;2022-07-22T01:21:12;35.80;28.40
21085;DHT22;34247;50.064;19.970;2022-07-22T01:22:17;35.70;28.40
21085;DHT22;34247;50.064;19.970;2022-07-22T01:23:22;35.70;28.40
21085;DHT22;34247;50.064;19.970;2022-07-22T01:24:26;35.70;28.40
21085;DHT22;34247;50.064;19.970;2022-07-22T01:25:30;35.70;28.40
21085;DHT22;34247;50.064;19.970;2022-07-22T01:26:35;35.70;28.40
21085;DHT22;34247;50.064;19.970;2022-07-22T01:27:39;35.70;28.40
21085;DHT22;34247;50.064;19.970;2022-07-22T01:28:43;35.70;28.50
21085;DHT22;34247;50.064;19.970;2022-07-22T01:29:48;35.60;28.50
21085;DHT22;34247;50.064;19.970;2022-07-22T01:30:52;35.70;28.50
21085;DHT22;34247;50.064;19.970;2022-07-22T01:31:57;35.70;28.40
21085;DHT22;34247;50.064;19.970;2022-07-22T01:33:01;35.60;28.40
21085;DHT22;34247;50.064;19.970;2022-07-22T01:34:06;35.60;28.40
21085;DHT22;34247;50.064;19.970;2022-07-22T01:35:10;35.60;28.40
21085;DHT22;34247;50.064;19.970;2022-07-22T01:36:14;35.70;28.50
21085;DHT22;34247;50.064;19.970;2022-07-22T01:37:19;35.60;28.40
21085;DHT22;34247;50.064;19.970;2022-07-22T01:38:23;35.60;28.50
21085;DHT22;34247;50.064;19.970;2022-07-22T01:39:27;35.60;28.50
21085;DHT22;34247;50.064;19.970;2022-07-22T01:40:31;35.60;28.50
21085;DHT22;34247;50.064;19.970;2022-07-22T01:41:35;35.60;28.50
21085;DHT22;34247;50.064;19.970;2022-07-22T01:42:39;35.60;28.50
21085;DHT22;34247;50.064;19.970;2022-07-22T01:43:44;35.60;28.50
21085;DHT22;34247;50.064;19.970;2022-07-22T01:44:48;35.70;28.60
21085;DHT22;34247;50.064;19.970;2022-07-22T01:45:52;35.60;28.60
21085;DHT22;34247;50.064;19.970;2022-07-22T01:46:57;35.60;29.10
21085;DHT22;34247;50.064;19.970;2022-07-22T01:48:03;35.60;28.60
21085;DHT22;34247;50.064;19.970;2022-07-22T01:49:07;35.60;28.60
21085;DHT22;34247;50.064;19.970;2022-07-22T01:50:12;35.60;28.60
21085;DHT22;34247;50.064;19.970;2022-07-22T01:51:16;35.60;28.60
21085;DHT22;34247;50.064;19.970;2022-07-22T01:52:21;35.60;28.70
21085;DHT22;34247;50.064;19.970;2022-07-22T01:53:26;35.70;28.70
21085;DHT22;34247;50.064;19.970;2022-07-22T01:54:30;35.60;28.70
21085;DHT22;34247;50.064;19.970;2022-07-22T01:55:34;35.60;28.70
21085;DHT22;34247;50.064;19.970;2022-07-22T01:56:38;35.60;28.70
21085;DHT22;34247;50.064;19.970;2022-07-22T01:57:43;35.60;28.70
21085;DHT22;34247;50.064;19.970;2022-07-22T01:58:47;35.60;28.70
21085;DHT22;34247;50.064;19.970;2022-07-22T01:59:51;35.60;28.80
21085;DHT22;34247;50.064;19.970;2022-07-22T02:00:55;35.60;28.80
21085;DHT22;34247;50.064;19.970;2022-07-22T02:02:00;35.60;28.80
21085;DHT22;34247;50.064;19.970;2022-07-22T02:03:04;35.60;28.90
21085;DHT22;34247;50.064;19.970;2022-07-22T02:04:09;35.60;28.90
21085;DHT22;34247;50.064;19.970;2022-07-22T02:05:13;35.60;28.90
21085;DHT22;34247;50.064;19.970;2022-07-22T02:06:18;35.60;28.90
21085;DHT22;34247;50.064;19.970;2022-07-22T02:07:22;35.60;28.80
21085;DHT22;34247;50.064;19.970;2022-07-22T02:08:28;35.60;28.80
21085;DHT22;34247;50.064;19.970;2022-07-22T02:09:31;35.60;28.70
21085;DHT22;34247;50.064;19.970;2022-07-22T02:10:36;35.60;28.70
21085;DHT22;34247;50.064;19.970;2022-07-22T02:11:40;35.60;28.70
21085;DHT22;34247;50.064;19.970;2022-07-22T02:12:45;35.60;28.80
21085;DHT22;34247;50.064;19.970;2022-07-22T02:13:49;35.60;28.80
21085;DHT22;34247;50.064;19.970;2022-07-22T02:14:53;35.60;28.80
21085;DHT22;34247;50.064;19.970;2022-07-22T02:15:58;35.60;28.80
21085;DHT22;34247;50.064;19.970;2022-07-22T02:17:02;35.60;28.80
21085;DHT22;34247;50.064;19.970;2022-07-22T02:18:15;35.60;28.80
21085;DHT22;34247;50.064;19.970;2022-07-22T02:19:20;35.60;28.80
21085;DHT22;34247;50.064;19.970;2022-07-22T02:20:24;35.50;28.80
21085;DHT22;34247;50.064;19.970;2022-07-22T02:21:29;35.50;28.80
21085;DHT22;34247;50.064;19.970;2022-07-22T02:22:34;35.50;28.80
21085;DHT22;34247;50.064;19.970;2022-07-22T02:23:38;35.50;28.80
21085;DHT22;34247;50.064;19.970;2022-07-22T02:24:42;35.50;28.90
21085;DHT22;34247;50.064;19.970;2022-07-22T02:25:46;35.50;28.80
21085;DHT22;34247;50.064;19.970;2022-07-22T02:26:50;35.50;28.90
21085;DHT22;34247;50.064;19.970;2022-07-22T02:27:54;35.50;28.90
21085;DHT22;34247;50.064;19.970;2022-07-22T02:28:58;35.50;28.90
21085;DHT22;34247;50.064;19.970;2022-07-22T02:30:04;35.50;28.80
21085;DHT22;34247;50.064;19.970;2022-07-22T02:31:09;35.50;28.80
21085;DHT22;34247;50.064;19.970;2022-07-22T02:32:13;35.50;28.90
21085;DHT22;34247;50.064;19.970;2022-07-22T02:33:17;35.40;28.80
21085;DHT22;34247;50.064;19.970;2022-07-22T02:34:21;35.40;28.80
21085;DHT22;34247;50.064;19.970;2022-07-22T02:35:26;35.50;28.90
21085;DHT22;34247;50.064;19.970;2022-07-22T02:36:31;35.40;28.90
21085;DHT22;34247;50.064;19.970;2022-07-22T02:37:35;35.40;28.90
21085;DHT22;34247;50.064;19.970;2022-07-22T02:38:41;35.40;28.90
21085;DHT22;34247;50.064;19.970;2022-07-22T02:39:45;35.40;28.90
21085;DHT22;34247;50.064;19.970;2022-07-22T02:40:50;35.40;28.90
21085;DHT22;34247;50.064;19.970;2022-07-22T02:41:54;35.40;28.80
21085;DHT22;34247;50.064;19.970;2022-07-22T02:42:58;35.40;28.80
21085;DHT22;34247;50.064;19.970;2022-07-22T02:44:02;35.40;28.80
21085;DHT22;34247;50.064;19.970;2022-07-22T02:45:07;35.40;28.80
21085;DHT22;34247;50.064;19.970;2022-07-22T02:46:12;35.40;28.80
21085;DHT22;34247;50.064;19.970;2022-07-22T02:47:16;35.40;28.80
21085;DHT22;34247;50.064;19.970;2022-07-22T02:48:20;35.40;28.80
21085;DHT22;34247;50.064;19.970;2022-07-22T02:49:24;35.40;28.90
21085;DHT22;34247;50.064;19.970;2022-07-22T02:50:28;35.40;28.90
21085;DHT22;34247;50.064;19.970;2022-07-22T02:51:32;35.40;28.90
21085;DHT22;34247;50.064;19.970;2022-07-22T02:52:36;35.40;29.00
21085;DHT22;34247;50.064;19.970;2022-07-22T02:53:41;35.40;29.00
21085;DHT22;34247;50.064;19.970;2022-07-22T02:54:46;35.30;29.00
21085;DHT22;34247;50.064;19.970;2022-07-22T02:55:50;35.30;29.00
21085;DHT22;34247;50.064;19.970;2022-07-22T02:56:54;35.30;29.00
21085;DHT22;34247;50.064;19.970;2022-07-22T02:58:07;35.30;29.00
21085;DHT22;34247;50.064;19.970;2022-07-22T02:59:12;35.30;29.10
21085;DHT22;34247;50.064;19.970;2022-07-22T03:00:16;35.30;29.10
21085;DHT22;34247;50.064;19.970;2022-07-22T03:01:21;35.30;29.10
21085;DHT22;34247;50.064;19.970;2022-07-22T03:02:25;35.30;29.10
21085;DHT22;34247;50.064;19.970;2022-07-22T03:03:29;35.30;29.10
21085;DHT22;34247;50.064;19.970;2022-07-22T03:04:33;35.30;29.10
21085;DHT22;34247;50.064;19.970;2022-07-22T03:05:38;35.30;29.20
21085;DHT22;34247;50.064;19.970;2022-07-22T03:06:43;35.30;29.10
21085;DHT22;34247;50.064;19.970;2022-07-22T03:07:47;35.30;29.10
21085;DHT22;34247;50.064;19.970;2022-07-22T03:08:53;35.30;29.10
21085;DHT22;34247;50.064;19.970;2022-07-22T03:09:58;35.30;29.10
21085;DHT22;34247;50.064;19.970;2022-07-22T03:11:05;35.30;29.10
21085;DHT22;34247;50.064;19.970;2022-07-22T03:12:09;35.30;29.20
21085;DHT22;34247;50.064;19.970;2022-07-22T03:13:13;35.20;29.10
21085;DHT22;34247;50.064;19.970;2022-07-22T03:14:17;35.20;29.10
21085;DHT22;34247;50.064;19.970;2022-07-22T03:15:21;35.20;29.20
21085;DHT22;34247;50.064;19.970;2022-07-22T03:16:25;35.20;29.20
21085;DHT22;34247;50.064;19.970;2022-07-22T03:17:33;35.20;29.20
21085;DHT22;34247;50.064;19.970;2022-07-22T03:18:38;35.30;29.30
21085;DHT22;34247;50.064;19.970;2022-07-22T03:19:42;35.20;29.30
21085;DHT22;34247;50.064;19.970;2022-07-22T03:20:46;35.20;29.30
21085;DHT22;34247;50.064;19.970;2022-07-22T03:21:51;35.20;29.40
21085;DHT22;34247;50.064;19.970;2022-07-22T03:22:55;35.20;29.30
21085;DHT22;34247;50.064;19.970;2022-07-22T03:23:59;35.20;29.30
21085;DHT22;34247;50.064;19.970;2022-07-22T03:25:03;35.20;29.40
21085;DHT22;34247;50.064;19.970;2022-07-22T03:26:07;35.20;29.40
21085;DHT22;34247;50.064;19.970;2022-07-22T03:27:12;35.20;29.40
21085;DHT22;34247;50.064;19.970;2022-07-22T03:28:17;35.20;29.40
21085;DHT22;34247;50.064;19.970;2022-07-22T03:29:21;35.20;29.40
21085;DHT22;34247;50.064;19.970;2022-07-22T03:30:28;35.10;29.40
21085;DHT22;34247;50.064;19.970;2022-07-22T03:31:32;35.20;29.50
21085;DHT22;34247;50.064;19.970;2022-07-22T03:32:36;35.10;29.40
21085;DHT22;34247;50.064;19.970;2022-07-22T03:33:40;35.10;29.40
21085;DHT22;34247;50.064;19.970;2022-07-22T03:34:44;35.10;29.50
21085;DHT22;34247;50.064;19.970;2022-07-22T03:35:49;35.10;29.50
21085;DHT22;34247;50.064;19.970;2022-07-22T03:36:53;35.20;29.50
21085;DHT22;34247;50.064;19.970;2022-07-22T03:37:57;35.10;29.50
21085;DHT22;34247;50.064;19.970;2022-07-22T03:39:02;35.20;29.50
21085;DHT22;34247;50.064;19.970;2022-07-22T03:40:07;35.10;29.50
21085;DHT22;34247;50.064;19.970;2022-07-22T03:41:12;35.10;29.50
21085;DHT22;34247;50.064;19.970;2022-07-22T03:42:16;35.10;29.60
21085;DHT22;34247;50.064;19.970;2022-07-22T03:43:20;35.20;29.60
21085;DHT22;34247;50.064;19.970;2022-07-22T03:44:24;35.10;29.60
21085;DHT22;34247;50.064;19.970;2022-07-22T03:45:29;35.20;29.70
21085;DHT22;34247;50.064;19.970;2022-07-22T03:46:33;35.20;29.70
21085;DHT22;34247;50.064;19.970;2022-07-22T03:47:37;35.20;29.70
21085;DHT22;34247;50.064;19.970;2022-07-22T03:48:41;35.20;29.70
21085;DHT22;34247;50.064;19.970;2022-07-22T03:49:45;35.20;29.70
21085;DHT22;34247;50.064;19.970;2022-07-22T03:50:49;35.20;29.70
21085;DHT22;34247;50.064;19.970;2022-07-22T03:51:54;35.20;29.70
21085;DHT22;34247;50.064;19.970;2022-07-22T03:52:58;35.20;29.80
21085;DHT22;34247;50.064;19.970;2022-07-22T03:54:04;35.20;29.80
21085;DHT22;34247;50.064;19.970;2022-07-22T03:55:08;35.20;29.80
21085;DHT22;34247;50.064;19.970;2022-07-22T03:56:14;35.20;29.80
21085;DHT22;34247;50.064;19.970;2022-07-22T03:57:19;35.20;29.90
21085;DHT22;34247;50.064;19.970;2022-07-22T03:58:24;35.20;29.90
21085;DHT22;34247;50.064;19.970;2022-07-22T03:59:30;35.20;29.90
21085;DHT22;34247;50.064;19.970;2022-07-22T04:00:34;35.20;29.90
21085;DHT22;34247;50.064;19.970;2022-07-22T04:01:38;35.20;30.00
21085;DHT22;34247;50.064;19.970;2022-07-22T04:02:43;35.20;30.00
21085;DHT22;34247;50.064;19.970;2022-07-22T04:03:47;35.20;30.00
21085;DHT22;34247;50.064;19.970;2022-07-22T04:04:52;35.20;30.00
21085;DHT22;34247;50.064;19.970;2022-07-22T04:05:56;35.20;30.00
21085;DHT22;34247;50.064;19.970;2022-07-22T04:07:00;35.30;30.10
21085;DHT22;34247;50.064;19.970;2022-07-22T04:08:04;35.30;30.10
21085;DHT22;34247;50.064;19.970;2022-07-22T04:09:08;35.30;30.20
21085;DHT22;34247;50.064;19.970;2022-07-22T04:10:12;35.30;30.20
21085;DHT22;34247;50.064;19.970;2022-07-22T04:11:16;35.30;30.20
21085;DHT22;34247;50.064;19.970;2022-07-22T04:12:20;35.30;30.30
21085;DHT22;34247;50.064;19.970;2022-07-22T04:13:24;35.30;30.30
21085;DHT22;34247;50.064;19.970;2022-07-22T04:14:29;35.30;30.40
21085;DHT22;34247;50.064;19.970;2022-07-22T04:15:33;35.40;30.50
21085;DHT22;34247;50.064;19.970;2022-07-22T04:16:37;35.40;30.50
21085;DHT22;34247;50.064;19.970;2022-07-22T04:17:42;35.40;30.50
21085;DHT22;34247;50.064;19.970;2022-07-22T04:18:46;35.40;30.60
21085;DHT22;34247;50.064;19.970;2022-07-22T04:19:52;35.40;30.60
21085;DHT22;34247;50.064;19.970;2022-07-22T04:20:56;35.40;30.60
21085;DHT22;34247;50.064;19.970;2022-07-22T04:22:01;35.50;30.80
21085;DHT22;34247;50.064;19.970;2022-07-22T04:23:05;35.50;30.70
21085;DHT22;34247;50.064;19.970;2022-07-22T04:24:09;35.50;30.80
21085;DHT22;34247;50.064;19.970;2022-07-22T04:25:13;35.50;30.70
21085;DHT22;34247;50.064;19.970;2022-07-22T04:26:18;35.50;30.80
21085;DHT22;34247;50.064;19.970;2022-07-22T04:27:23;35.50;30.70
21085;DHT22;34247;50.064;19.970;2022-07-22T04:28:27;35.60;30.80
21085;DHT22;34247;50.064;19.970;2022-07-22T04:29:31;35.60;30.90
21085;DHT22;34247;50.064;19.970;2022-07-22T04:30:35;35.60;30.90
21085;DHT22;34247;50.064;19.970;2022-07-22T04:31:39;35.60;30.90
21085;DHT22;34247;50.064;19.970;2022-07-22T04:32:43;35.60;31.60
21085;DHT22;34247;50.064;19.970;2022-07-22T04:33:48;35.60;30.90
21085;DHT22;34247;50.064;19.970;2022-07-22T04:34:52;35.60;30.80
21085;DHT22;34247;50.064;19.970;2022-07-22T04:35:56;35.70;31.00
21085;DHT22;34247;50.064;19.970;2022-07-22T04:37:00;35.70;30.90
21085;DHT22;34247;50.064;19.970;2022-07-22T04:38:06;35.70;31.00
21085;DHT22;34247;50.064;19.970;2022-07-22T04:39:10;35.70;31.60
21085;DHT22;34247;50.064;19.970;2022-07-22T04:40:14;35.70;30.90
21085;DHT22;34247;50.064;19.970;2022-07-22T04:41:18;35.70;31.00
21085;DHT22;34247;50.064;19.970;2022-07-22T04:42:23;35.70;31.00
21085;DHT22;34247;50.064;19.970;2022-07-22T04:43:27;35.70;31.00
21085;DHT22;34247;50.064;19.970;2022-07-22T04:44:31;35.70;30.90
21085;DHT22;34247;50.064;19.970;2022-07-22T04:45:35;35.80;31.00
21085;DHT22;34247;50.064;19.970;2022-07-22T04:46:39;35.80;31.00
21085;DHT22;34247;50.064;19.970;2022-07-22T04:47:43;35.80;31.00
21085;DHT22;34247;50.064;19.970;2022-07-22T04:48:47;35.80;31.10
21085;DHT22;34247;50.064;19.970;2022-07-22T04:49:51;35.80;31.00
21085;DHT22;34247;50.064;19.970;2022-07-22T04:51:03;35.80;31.10
21085;DHT22;34247;50.064;19.970;2022-07-22T04:52:08;35.80;31.00
21085;DHT22;34247;50.064;19.970;2022-07-22T04:53:13;35.80;31.10
21085;DHT22;34247;50.064;19.970;2022-07-22T04:54:17;35.80;31.20
21085;DHT22;34247;50.064;19.970;2022-07-22T04:55:24;35.90;31.10
21085;DHT22;34247;50.064;19.970;2022-07-22T04:56:28;35.90;31.10
21085;DHT22;34247;50.064;19.970;2022-07-22T04:57:32;35.90;31.10
21085;DHT22;34247;50.064;19.970;2022-07-22T04:58:36;36.00;31.20
21085;DHT22;34247;50.064;19.970;2022-07-22T04:59:40;36.00;31.10
21085;DHT22;34247;50.064;19.970;2022-07-22T05:00:44;36.00;31.10
21085;DHT22;34247;50.064;19.970;2022-07-22T05:01:48;36.10;31.00
21085;DHT22;34247;50.064;19.970;2022-07-22T05:02:53;36.10;31.10
21085;DHT22;34247;50.064;19.970;2022-07-22T05:03:58;36.10;30.90
21085;DHT22;34247;50.064;19.970;2022-07-22T05:05:02;36.20;30.90
21085;DHT22;34247;50.064;19.970;2022-07-22T05:06:07;36.20;31.00
21085;DHT22;34247;50.064;19.970;2022-07-22T05:07:11;36.20;31.00
21085;DHT22;34247;50.064;19.970;2022-07-22T05:08:16;36.30;30.90
21085;DHT22;34247;50.064;19.970;2022-07-22T05:09:20;36.30;30.90
21085;DHT22;34247;50.064;19.970;2022-07-22T05:10:24;36.30;30.80
21085;DHT22;34247;50.064;19.970;2022-07-22T05:11:28;36.40;30.80
21085;DHT22;34247;50.064;19.970;2022-07-22T05:12:32;36.40;30.70
21085;DHT22;34247;50.064;19.970;2022-07-22T05:13:36;36.50;30.70
21085;DHT22;34247;50.064;19.970;2022-07-22T05:14:41;36.50;30.60
21085;DHT22;34247;50.064;19.970;2022-07-22T05:15:44;36.50;30.60
21085;DHT22;34247;50.064;19.970;2022-07-22T05:16:48;36.60;30.60
21085;DHT22;34247;50.064;19.970;2022-07-22T05:17:53;36.60;30.50
21085;DHT22;34247;50.064;19.970;2022-07-22T05:18:57;36.60;30.50
21085;DHT22;34247;50.064;19.970;2022-07-22T05:20:03;36.60;30.40
21085;DHT22;34247;50.064;19.970;2022-07-22T05:21:09;36.70;30.40
21085;DHT22;34247;50.064;19.970;2022-07-22T05:22:14;36.80;30.20
21085;DHT22;34247;50.064;19.970;2022-07-22T05:23:18;36.80;30.10
21085;DHT22;34247;50.064;19.970;2022-07-22T05:24:22;36.80;30.00
21085;DHT22;34247;50.064;19.970;2022-07-22T05:25:27;36.90;30.10
21085;DHT22;34247;50.064;19.970;2022-07-22T05:26:31;36.90;30.00
21085;DHT22;34247;50.064;19.970;2022-07-22T05:27:36;37.00;29.90
21085;DHT22;34247;50.064;19.970;2022-07-22T05:28:40;37.00;29.90
21085;DHT22;34247;50.064;19.970;2022-07-22T05:29:45;37.10;29.80
21085;DHT22;34247;50.064;19.970;2022-07-22T05:30:49;37.10;29.70
21085;DHT22;34247;50.064;19.970;2022-07-22T05:31:53;37.20;29.70
21085;DHT22;34247;50.064;19.970;2022-07-22T05:32:57;37.20;29.70
21085;DHT22;34247;50.064;19.970;2022-07-22T05:34:02;37.30;29.60
21085;DHT22;34247;50.064;19.970;2022-07-22T05:35:07;37.30;29.40
21085;DHT22;34247;50.064;19.970;2022-07-22T05:36:14;37.40;29.40
21085;DHT22;34247;50.064;19.970;2022-07-22T05:37:18;37.40;29.40
21085;DHT22;34247;50.064;19.970;2022-07-22T05:38:22;37.50;29.30
21085;DHT22;34247;50.064;19.970;2022-07-22T05:39:26;37.50;29.20
21085;DHT22;34247;50.064;19.970;2022-07-22T05:40:31;37.50;29.20
21085;DHT22;34247;50.064;19.970;2022-07-22T05:41:35;37.60;29.10
21085;DHT22;34247;50.064;19.970;2022-07-22T05:42:40;37.60;29.10
21085;DHT22;34247;50.064;19.970;2022-07-22T05:43:44;37.70;29.10
21085;DHT22;34247;50.064;19.970;2022-07-22T05:44:49;37.70;29.10
21085;DHT22;34247;50.064;19.970;2022-07-22T05:45:53;37.80;28.90
21085;DHT22;34247;50.064;19.970;2022-07-22T05:46:57;37.90;28.80
21085;DHT22;34247;50.064;19.970;2022-07-22T05:48:02;37.90;28.70
21085;DHT22;34247;50.064;19.970;2022-07-22T05:49:07;38.00;28.70
21085;DHT22;34247;50.064;19.970;2022-07-22T05:50:11;38.00;28.50
21085;DHT22;34247;50.064;19.970;2022-07-22T05:51:15;38.10;28.50
21085;DHT22;34247;50.064;19.970;2022-07-22T05:52:20;38.10;28.50
21085;DHT22;34247;50.064;19.970;2022-07-22T05:53:25;38.10;28.40
21085;DHT22;34247;50.064;19.970;2022-07-22T05:54:29;38.20;28.90
21085;DHT22;34247;50.064;19.970;2022-07-22T05:55:34;38.20;28.30
21085;DHT22;34247;50.064;19.970;2022-07-22T05:56:39;38.30;28.30
21085;DHT22;34247;50.064;19.970;2022-07-22T05:57:43;38.30;28.20
21085;DHT22;34247;50.064;19.970;2022-07-22T05:58:47;38.30;28.20
21085;DHT22;34247;50.064;19.970;2022-07-22T05:59:51;38.40;28.20
21085;DHT22;34247;50.064;19.970;2022-07-22T06:00:55;38.40;28.10
21085;DHT22;34247;50.064;19.970;2022-07-22T06:02:01;38.50;28.10
21085;DHT22;34247;50.064;19.970;2022-07-22T06:03:05;38.50;28.10
21085;DHT22;34247;50.064;19.970;2022-07-22T06:04:10;38.60;28.00
21085;DHT22;34247;50.064;19.970;2022-07-22T06:05:14;38.60;27.90
21085;DHT22;34247;50.064;19.970;2022-07-22T06:06:39;38.60;27.80
21085;DHT22;34247;50.064;19.970;2022-07-22T06:07:43;38.70;27.80
21085;DHT22;34247;50.064;19.970;2022-07-22T06:08:47;38.70;27.80
21085;DHT22;34247;50.064;19.970;2022-07-22T06:09:56;38.70;27.70
21085;DHT22;34247;50.064;19.970;2022-07-22T06:11:01;38.80;27.70
21085;DHT22;34247;50.064;19.970;2022-07-22T06:12:06;38.80;27.70
21085;DHT22;34247;50.064;19.970;2022-07-22T06:13:10;38.80;27.60
21085;DHT22;34247;50.064;19.970;2022-07-22T06:14:14;38.90;27.60
21085;DHT22;34247;50.064;19.970;2022-07-22T06:15:25;38.90;28.00
21085;DHT22;34247;50.064;19.970;2022-07-22T06:16:30;38.90;27.30
21085;DHT22;34247;50.064;19.970;2022-07-22T06:17:34;39.00;27.20
21085;DHT22;34247;50.064;19.970;2022-07-22T06:18:38;39.00;27.20
21085;DHT22;34247;50.064;19.970;2022-07-22T06:19:43;39.00;27.20
21085;DHT22;34247;50.064;19.970;2022-07-22T06:20:48;39.00;27.20
21085;DHT22;34247;50.064;19.970;2022-07-22T06:21:52;39.00;27.20
21085;DHT22;34247;50.064;19.970;2022-07-22T06:22:56;39.00;27.20
21085;DHT22;34247;50.064;19.970;2022-07-22T06:24:01;39.00;27.30
21085;DHT22;34247;50.064;19.970;2022-07-22T06:25:05;39.00;27.30
21085;DHT22;34247;50.064;19.970;2022-07-22T06:26:30;39.00;27.20
21085;DHT22;34247;50.064;19.970;2022-07-22T06:27:34;38.90;27.70
21085;DHT22;34247;50.064;19.970;2022-07-22T06:28:38;38.90;27.20
21085;DHT22;34247;50.064;19.970;2022-07-22T06:29:42;38.90;27.10
21085;DHT22;34247;50.064;19.970;2022-07-22T06:30:46;38.90;27.10
21085;DHT22;34247;50.064;19.970;2022-07-22T06:31:50;38.90;27.20
21085;DHT22;34247;50.064;19.970;2022-07-22T06:32:55;38.90;27.20
21085;DHT22;34247;50.064;19.970;2022-07-22T06:33:59;38.90;27.10
21085;DHT22;34247;50.064;19.970;2022-07-22T06:35:04;38.90;27.20
21085;DHT22;34247;50.064;19.970;2022-07-22T06:36:09;38.90;27.20
21085;DHT22;34247;50.064;19.970;2022-07-22T06:37:15;38.90;27.30
21085;DHT22;34247;50.064;19.970;2022-07-22T06:38:20;38.90;27.40
21085;DHT22;34247;50.064;19.970;2022-07-22T06:39:37;38.90;27.40
21085;DHT22;34247;50.064;19.970;2022-07-22T06:40:41;38.90;27.50
21085;DHT22;34247;50.064;19.970;2022-07-22T06:41:45;38.90;27.40
21085;DHT22;34247;50.064;19.970;2022-07-22T06:42:49;38.90;27.50